Terminal Aerodrome Forecast
Issued by NWS Green Bay, WI

Home | Current Version | Previous Version | Graphics & Text | Print | Product List | Glossary On
Versions: 1 2 3 4 5 6 7 8 9 10 11 12 13 14 15 16 17 18 19 20 21 22 23 24 25 26 27 28 29 30 31 32 33 34 35
000
FTUS43 KGRB 211000 AAA
TAFGRB
TAF AMD
KGRB 211036Z 2111/2206 VRB03KT 4SM BR SCT020 OVC035
      TEMPO 2111/2113 BKN020
     FM211300 15004KT 4SM -FZDZ BR OVC012
     FM211700 16008KT 6SM -DZ BR OVC015
     FM220300 15011KT 5SM -DZSN BR OVC012=

USA.gov is the U.S. government's official web portal to all federal, state and local government web resources and services.